Terminal Aerodrome Forecast
Issued by NWS

Home | Current Version | Previous Version | Text Only | Print | Product List | Glossary On
Versions: 1 2 3 4 5 6 7 8 9 10 11 12 13 14 15 16 17
507
FTUS46 KSEW 261809 CCA
TAFPAE
TAF COR
KPAE 261809Z 2618/2718 21010KT P6SM SCT013 SCT090 BKN200
     FM261900 21010KT P6SM SCT090 BKN200
     FM262000 25008KT P6SM FEW090 BKN200
     FM270000 31008KT P6SM SCT200
     FM270300 36008KT P6SM SCT200
     FM270900 VRB05KT P6SM OVC015=

USA.gov is the U.S. government's official web portal to all federal, state and local government web resources and services.